sensor_id;sensor_type;location;lat;lon;timestamp;P1;durP1;ratioP1;P2;durP2;ratioP2
15833;SDS011;8017;50.812;4.934;2023-03-05T00:02:57;8.70;;;4.70;;
15833;SDS011;8017;50.812;4.934;2023-03-05T00:05:59;8.90;;;5.13;;
15833;SDS011;8017;50.812;4.934;2023-03-05T00:09:01;9.87;;;5.53;;
15833;SDS011;8017;50.812;4.934;2023-03-05T00:12:05;8.63;;;5.27;;
15833;SDS011;8017;50.812;4.934;2023-03-05T00:15:08;11.03;;;5.23;;
15833;SDS011;8017;50.812;4.934;2023-03-05T00:18:10;8.30;;;4.90;;
15833;SDS011;8017;50.812;4.934;2023-03-05T00:21:19;10.37;;;4.77;;
15833;SDS011;8017;50.812;4.934;2023-03-05T00:24:22;8.63;;;4.73;;
15833;SDS011;8017;50.812;4.934;2023-03-05T00:27:25;5.53;;;4.30;;
15833;SDS011;8017;50.812;4.934;2023-03-05T00:30:27;7.67;;;4.20;;
15833;SDS011;8017;50.812;4.934;2023-03-05T00:33:29;5.10;;;4.10;;
15833;SDS011;8017;50.812;4.934;2023-03-05T00:36:31;7.03;;;3.60;;
15833;SDS011;8017;50.812;4.934;2023-03-05T00:39:33;6.87;;;4.00;;
15833;SDS011;8017;50.812;4.934;2023-03-05T00:42:36;5.37;;;3.93;;
15833;SDS011;8017;50.812;4.934;2023-03-05T00:45:38;6.87;;;4.13;;
15833;SDS011;8017;50.812;4.934;2023-03-05T00:48:40;6.20;;;4.50;;
15833;SDS011;8017;50.812;4.934;2023-03-05T00:51:42;8.50;;;4.30;;
15833;SDS011;8017;50.812;4.934;2023-03-05T00:54:44;5.73;;;3.93;;
15833;SDS011;8017;50.812;4.934;2023-03-05T00:57:47;6.47;;;4.37;;
15833;SDS011;8017;50.812;4.934;2023-03-05T01:00:49;8.53;;;4.27;;
15833;SDS011;8017;50.812;4.934;2023-03-05T01:03:51;5.87;;;4.20;;
15833;SDS011;8017;50.812;4.934;2023-03-05T01:06:55;8.70;;;4.40;;
15833;SDS011;8017;50.812;4.934;2023-03-05T01:09:57;8.53;;;4.60;;
15833;SDS011;8017;50.812;4.934;2023-03-05T01:13:00;5.73;;;4.23;;
15833;SDS011;8017;50.812;4.934;2023-03-05T01:16:03;6.90;;;4.57;;
15833;SDS011;8017;50.812;4.934;2023-03-05T01:19:05;7.50;;;4.37;;
15833;SDS011;8017;50.812;4.934;2023-03-05T01:22:07;8.40;;;4.37;;
15833;SDS011;8017;50.812;4.934;2023-03-05T01:25:09;7.73;;;4.53;;
15833;SDS011;8017;50.812;4.934;2023-03-05T01:28:14;7.43;;;4.77;;
15833;SDS011;8017;50.812;4.934;2023-03-05T01:31:16;8.20;;;3.83;;
15833;SDS011;8017;50.812;4.934;2023-03-05T01:34:18;9.17;;;4.43;;
15833;SDS011;8017;50.812;4.934;2023-03-05T01:37:20;7.53;;;4.23;;
15833;SDS011;8017;50.812;4.934;2023-03-05T01:40:23;10.33;;;5.03;;
15833;SDS011;8017;50.812;4.934;2023-03-05T01:43:29;9.87;;;4.60;;
15833;SDS011;8017;50.812;4.934;2023-03-05T01:46:32;7.23;;;4.23;;
15833;SDS011;8017;50.812;4.934;2023-03-05T01:49:35;6.17;;;3.77;;
15833;SDS011;8017;50.812;4.934;2023-03-05T01:52:40;6.70;;;4.60;;
15833;SDS011;8017;50.812;4.934;2023-03-05T01:55:45;11.20;;;4.47;;
15833;SDS011;8017;50.812;4.934;2023-03-05T01:58:48;5.47;;;3.70;;
15833;SDS011;8017;50.812;4.934;2023-03-05T02:01:53;7.20;;;3.57;;
15833;SDS011;8017;50.812;4.934;2023-03-05T02:04:58;5.20;;;3.80;;
15833;SDS011;8017;50.812;4.934;2023-03-05T02:08:04;6.33;;;3.70;;
15833;SDS011;8017;50.812;4.934;2023-03-05T02:11:07;6.87;;;3.50;;
15833;SDS011;8017;50.812;4.934;2023-03-05T02:14:10;6.83;;;3.90;;
15833;SDS011;8017;50.812;4.934;2023-03-05T02:17:13;5.83;;;4.07;;
15833;SDS011;8017;50.812;4.934;2023-03-05T02:20:16;9.97;;;4.17;;
15833;SDS011;8017;50.812;4.934;2023-03-05T02:23:22;5.60;;;3.87;;
15833;SDS011;8017;50.812;4.934;2023-03-05T02:26:25;6.23;;;4.43;;
15833;SDS011;8017;50.812;4.934;2023-03-05T02:29:27;6.50;;;4.27;;
15833;SDS011;8017;50.812;4.934;2023-03-05T02:32:31;10.60;;;4.60;;
15833;SDS011;8017;50.812;4.934;2023-03-05T02:35:33;10.33;;;4.40;;
15833;SDS011;8017;50.812;4.934;2023-03-05T02:38:37;7.90;;;4.27;;
15833;SDS011;8017;50.812;4.934;2023-03-05T02:41:40;7.53;;;3.97;;
15833;SDS011;8017;50.812;4.934;2023-03-05T02:44:42;7.90;;;4.73;;
15833;SDS011;8017;50.812;4.934;2023-03-05T02:47:44;6.90;;;4.47;;
15833;SDS011;8017;50.812;4.934;2023-03-05T02:50:46;9.83;;;4.20;;
15833;SDS011;8017;50.812;4.934;2023-03-05T02:53:50;5.40;;;4.90;;
15833;SDS011;8017;50.812;4.934;2023-03-05T02:56:52;15.37;;;5.13;;
15833;SDS011;8017;50.812;4.934;2023-03-05T02:59:54;7.93;;;4.83;;
15833;SDS011;8017;50.812;4.934;2023-03-05T03:02:56;8.70;;;4.77;;
15833;SDS011;8017;50.812;4.934;2023-03-05T03:05:58;7.90;;;4.83;;
15833;SDS011;8017;50.812;4.934;2023-03-05T03:09:01;11.80;;;5.60;;
15833;SDS011;8017;50.812;4.934;2023-03-05T03:12:03;7.77;;;5.33;;
15833;SDS011;8017;50.812;4.934;2023-03-05T03:15:08;10.67;;;5.13;;
15833;SDS011;8017;50.812;4.934;2023-03-05T03:18:12;7.07;;;5.53;;
15833;SDS011;8017;50.812;4.934;2023-03-05T03:21:18;8.70;;;5.20;;
15833;SDS011;8017;50.812;4.934;2023-03-05T03:24:22;12.40;;;5.83;;
15833;SDS011;8017;50.812;4.934;2023-03-05T03:27:24;11.20;;;6.10;;
15833;SDS011;8017;50.812;4.934;2023-03-05T03:30:26;7.93;;;5.63;;
15833;SDS011;8017;50.812;4.934;2023-03-05T03:33:27;8.77;;;5.90;;
15833;SDS011;8017;50.812;4.934;2023-03-05T03:36:29;7.90;;;5.73;;
15833;SDS011;8017;50.812;4.934;2023-03-05T03:39:33;11.93;;;5.60;;
15833;SDS011;8017;50.812;4.934;2023-03-05T03:42:34;12.40;;;6.50;;
15833;SDS011;8017;50.812;4.934;2023-03-05T03:45:39;10.47;;;5.93;;
15833;SDS011;8017;50.812;4.934;2023-03-05T03:48:41;11.47;;;6.47;;
15833;SDS011;8017;50.812;4.934;2023-03-05T03:51:43;11.83;;;6.77;;
15833;SDS011;8017;50.812;4.934;2023-03-05T03:54:47;10.83;;;7.13;;
15833;SDS011;8017;50.812;4.934;2023-03-05T03:57:52;12.67;;;6.80;;
15833;SDS011;8017;50.812;4.934;2023-03-05T04:00:54;8.30;;;6.43;;
15833;SDS011;8017;50.812;4.934;2023-03-05T04:03:56;11.80;;;6.20;;
15833;SDS011;8017;50.812;4.934;2023-03-05T04:06:58;10.93;;;6.70;;
15833;SDS011;8017;50.812;4.934;2023-03-05T04:10:01;10.77;;;6.60;;
15833;SDS011;8017;50.812;4.934;2023-03-05T04:13:03;13.87;;;7.07;;
15833;SDS011;8017;50.812;4.934;2023-03-05T04:16:05;12.47;;;7.30;;
15833;SDS011;8017;50.812;4.934;2023-03-05T04:19:07;11.97;;;6.80;;
15833;SDS011;8017;50.812;4.934;2023-03-05T04:22:10;12.43;;;7.50;;
15833;SDS011;8017;50.812;4.934;2023-03-05T04:25:13;11.33;;;7.07;;
15833;SDS011;8017;50.812;4.934;2023-03-05T04:28:15;14.67;;;7.90;;
15833;SDS011;8017;50.812;4.934;2023-03-05T04:31:17;10.93;;;7.10;;
15833;SDS011;8017;50.812;4.934;2023-03-05T04:34:20;10.93;;;7.73;;
15833;SDS011;8017;50.812;4.934;2023-03-05T04:37:21;13.03;;;8.63;;
15833;SDS011;8017;50.812;4.934;2023-03-05T04:40:25;12.13;;;7.40;;
15833;SDS011;8017;50.812;4.934;2023-03-05T04:43:27;9.43;;;7.33;;
15833;SDS011;8017;50.812;4.934;2023-03-05T04:46:29;12.00;;;7.57;;
15833;SDS011;8017;50.812;4.934;2023-03-05T04:49:31;10.73;;;8.17;;
15833;SDS011;8017;50.812;4.934;2023-03-05T04:52:33;13.77;;;8.63;;
15833;SDS011;8017;50.812;4.934;2023-03-05T04:55:36;12.57;;;8.73;;
15833;SDS011;8017;50.812;4.934;2023-03-05T04:58:38;13.00;;;8.63;;
15833;SDS011;8017;50.812;4.934;2023-03-05T05:01:40;11.80;;;8.20;;
15833;SDS011;8017;50.812;4.934;2023-03-05T05:04:42;14.17;;;8.43;;
15833;SDS011;8017;50.812;4.934;2023-03-05T05:07:44;15.40;;;9.47;;
15833;SDS011;8017;50.812;4.934;2023-03-05T05:10:55;14.17;;;9.00;;
15833;SDS011;8017;50.812;4.934;2023-03-05T05:13:57;13.17;;;9.37;;
15833;SDS011;8017;50.812;4.934;2023-03-05T05:16:59;14.97;;;9.33;;
15833;SDS011;8017;50.812;4.934;2023-03-05T05:20:04;13.20;;;9.63;;
15833;SDS011;8017;50.812;4.934;2023-03-05T05:23:07;15.60;;;9.33;;
15833;SDS011;8017;50.812;4.934;2023-03-05T05:26:11;14.43;;;10.10;;
15833;SDS011;8017;50.812;4.934;2023-03-05T05:29:13;12.57;;;9.57;;
15833;SDS011;8017;50.812;4.934;2023-03-05T05:32:15;14.63;;;10.20;;
15833;SDS011;8017;50.812;4.934;2023-03-05T05:35:18;14.43;;;9.93;;
15833;SDS011;8017;50.812;4.934;2023-03-05T05:38:20;14.07;;;10.07;;
15833;SDS011;8017;50.812;4.934;2023-03-05T05:41:23;17.30;;;10.03;;
15833;SDS011;8017;50.812;4.934;2023-03-05T05:44:25;14.03;;;9.27;;
15833;SDS011;8017;50.812;4.934;2023-03-05T05:47:28;16.13;;;9.43;;
15833;SDS011;8017;50.812;4.934;2023-03-05T05:50:30;14.20;;;9.40;;
15833;SDS011;8017;50.812;4.934;2023-03-05T05:53:32;14.67;;;10.80;;
15833;SDS011;8017;50.812;4.934;2023-03-05T05:56:35;13.23;;;9.67;;
15833;SDS011;8017;50.812;4.934;2023-03-05T05:59:37;20.20;;;10.03;;
15833;SDS011;8017;50.812;4.934;2023-03-05T06:02:40;17.70;;;9.90;;
15833;SDS011;8017;50.812;4.934;2023-03-05T06:05:43;14.83;;;9.20;;
15833;SDS011;8017;50.812;4.934;2023-03-05T06:08:46;16.03;;;10.23;;
15833;SDS011;8017;50.812;4.934;2023-03-05T06:11:50;16.57;;;9.70;;
15833;SDS011;8017;50.812;4.934;2023-03-05T06:14:52;13.63;;;9.87;;
15833;SDS011;8017;50.812;4.934;2023-03-05T06:17:54;15.80;;;9.90;;
15833;SDS011;8017;50.812;4.934;2023-03-05T06:20:56;16.63;;;10.50;;
15833;SDS011;8017;50.812;4.934;2023-03-05T06:24:00;13.97;;;9.77;;
15833;SDS011;8017;50.812;4.934;2023-03-05T06:27:04;15.13;;;10.00;;
15833;SDS011;8017;50.812;4.934;2023-03-05T06:30:06;16.47;;;11.07;;
15833;SDS011;8017;50.812;4.934;2023-03-05T06:33:10;15.50;;;10.67;;
15833;SDS011;8017;50.812;4.934;2023-03-05T06:36:13;12.13;;;9.90;;
15833;SDS011;8017;50.812;4.934;2023-03-05T06:39:16;18.90;;;9.83;;
15833;SDS011;8017;50.812;4.934;2023-03-05T06:42:19;17.20;;;10.63;;
15833;SDS011;8017;50.812;4.934;2023-03-05T06:45:21;17.33;;;10.47;;
15833;SDS011;8017;50.812;4.934;2023-03-05T06:48:23;15.87;;;9.83;;
15833;SDS011;8017;50.812;4.934;2023-03-05T06:51:26;15.33;;;10.30;;
15833;SDS011;8017;50.812;4.934;2023-03-05T06:54:29;15.37;;;10.47;;
15833;SDS011;8017;50.812;4.934;2023-03-05T06:57:32;16.57;;;11.57;;
15833;SDS011;8017;50.812;4.934;2023-03-05T07:00:34;18.87;;;11.97;;
15833;SDS011;8017;50.812;4.934;2023-03-05T07:03:36;16.40;;;10.93;;
15833;SDS011;8017;50.812;4.934;2023-03-05T07:06:39;16.70;;;11.63;;
15833;SDS011;8017;50.812;4.934;2023-03-05T07:09:42;23.57;;;12.93;;
15833;SDS011;8017;50.812;4.934;2023-03-05T07:12:46;17.90;;;12.03;;
15833;SDS011;8017;50.812;4.934;2023-03-05T07:15:48;20.67;;;12.53;;
15833;SDS011;8017;50.812;4.934;2023-03-05T07:18:50;16.93;;;12.57;;
15833;SDS011;8017;50.812;4.934;2023-03-05T07:21:52;18.23;;;12.93;;
15833;SDS011;8017;50.812;4.934;2023-03-05T07:24:54;18.70;;;12.40;;
15833;SDS011;8017;50.812;4.934;2023-03-05T07:27:57;15.37;;;12.07;;
15833;SDS011;8017;50.812;4.934;2023-03-05T07:30:59;16.10;;;11.70;;
15833;SDS011;8017;50.812;4.934;2023-03-05T07:34:02;18.33;;;11.07;;
15833;SDS011;8017;50.812;4.934;2023-03-05T07:37:05;15.97;;;11.43;;
15833;SDS011;8017;50.812;4.934;2023-03-05T07:40:08;17.37;;;12.07;;
15833;SDS011;8017;50.812;4.934;2023-03-05T07:43:12;19.30;;;11.33;;
15833;SDS011;8017;50.812;4.934;2023-03-05T07:46:14;15.07;;;11.07;;
15833;SDS011;8017;50.812;4.934;2023-03-05T07:49:17;17.73;;;11.10;;
15833;SDS011;8017;50.812;4.934;2023-03-05T07:52:19;14.77;;;10.03;;
15833;SDS011;8017;50.812;4.934;2023-03-05T07:55:21;14.17;;;10.00;;
15833;SDS011;8017;50.812;4.934;2023-03-05T07:58:24;14.47;;;10.30;;
15833;SDS011;8017;50.812;4.934;2023-03-05T08:01:27;17.37;;;10.60;;
15833;SDS011;8017;50.812;4.934;2023-03-05T08:04:29;13.87;;;10.20;;
15833;SDS011;8017;50.812;4.934;2023-03-05T08:07:31;12.00;;;9.57;;
15833;SDS011;8017;50.812;4.934;2023-03-05T08:10:33;11.73;;;8.70;;
15833;SDS011;8017;50.812;4.934;2023-03-05T08:13:37;11.63;;;9.13;;
15833;SDS011;8017;50.812;4.934;2023-03-05T08:16:40;15.13;;;9.43;;
15833;SDS011;8017;50.812;4.934;2023-03-05T08:19:42;12.90;;;9.00;;
15833;SDS011;8017;50.812;4.934;2023-03-05T08:22:43;12.37;;;8.67;;
15833;SDS011;8017;50.812;4.934;2023-03-05T08:25:46;15.77;;;9.93;;
15833;SDS011;8017;50.812;4.934;2023-03-05T08:28:49;13.17;;;9.70;;
15833;SDS011;8017;50.812;4.934;2023-03-05T08:31:52;11.07;;;8.80;;
15833;SDS011;8017;50.812;4.934;2023-03-05T08:34:54;11.30;;;8.40;;
15833;SDS011;8017;50.812;4.934;2023-03-05T08:37:57;12.40;;;8.37;;
15833;SDS011;8017;50.812;4.934;2023-03-05T08:40:59;11.97;;;9.13;;
15833;SDS011;8017;50.812;4.934;2023-03-05T08:44:03;12.10;;;8.13;;
15833;SDS011;8017;50.812;4.934;2023-03-05T08:47:05;16.37;;;8.33;;
15833;SDS011;8017;50.812;4.934;2023-03-05T08:50:07;12.30;;;8.27;;
15833;SDS011;8017;50.812;4.934;2023-03-05T08:53:10;13.00;;;8.80;;
15833;SDS011;8017;50.812;4.934;2023-03-05T08:56:12;12.20;;;8.23;;
15833;SDS011;8017;50.812;4.934;2023-03-05T08:59:16;13.27;;;7.57;;
15833;SDS011;8017;50.812;4.934;2023-03-05T09:02:18;10.80;;;7.07;;
15833;SDS011;8017;50.812;4.934;2023-03-05T09:05:20;17.67;;;7.47;;
15833;SDS011;8017;50.812;4.934;2023-03-05T09:08:22;13.30;;;8.87;;
15833;SDS011;8017;50.812;4.934;2023-03-05T09:11:24;9.83;;;6.13;;
15833;SDS011;8017;50.812;4.934;2023-03-05T09:14:27;9.00;;;6.40;;
15833;SDS011;8017;50.812;4.934;2023-03-05T09:17:30;9.03;;;5.70;;
15833;SDS011;8017;50.812;4.934;2023-03-05T09:20:31;13.73;;;6.70;;
15833;SDS011;8017;50.812;4.934;2023-03-05T09:23:33;12.40;;;6.13;;
15833;SDS011;8017;50.812;4.934;2023-03-05T09:26:35;8.17;;;5.67;;
15833;SDS011;8017;50.812;4.934;2023-03-05T09:29:39;8.57;;;5.13;;
15833;SDS011;8017;50.812;4.934;2023-03-05T09:32:41;8.53;;;5.70;;
15833;SDS011;8017;50.812;4.934;2023-03-05T09:35:43;8.53;;;6.73;;
15833;SDS011;8017;50.812;4.934;2023-03-05T09:38:44;6.10;;;5.00;;
15833;SDS011;8017;50.812;4.934;2023-03-05T09:41:53;8.83;;;5.60;;
15833;SDS011;8017;50.812;4.934;2023-03-05T09:45:16;6.23;;;5.20;;
15833;SDS011;8017;50.812;4.934;2023-03-05T09:48:24;9.07;;;5.40;;
15833;SDS011;8017;50.812;4.934;2023-03-05T09:51:34;8.53;;;5.37;;
15833;SDS011;8017;50.812;4.934;2023-03-05T09:54:41;5.87;;;4.80;;
15833;SDS011;8017;50.812;4.934;2023-03-05T09:57:47;4.73;;;4.30;;
15833;SDS011;8017;50.812;4.934;2023-03-05T10:00:53;5.60;;;3.97;;
15833;SDS011;8017;50.812;4.934;2023-03-05T10:03:58;7.40;;;4.77;;
15833;SDS011;8017;50.812;4.934;2023-03-05T10:07:05;5.10;;;4.27;;
15833;SDS011;8017;50.812;4.934;2023-03-05T10:10:13;7.53;;;5.27;;
15833;SDS011;8017;50.812;4.934;2023-03-05T10:13:21;7.57;;;6.10;;
15833;SDS011;8017;50.812;4.934;2023-03-05T10:16:39;7.87;;;7.07;;
15833;SDS011;8017;50.812;4.934;2023-03-05T10:23:32;9.93;;;8.93;;
15833;SDS011;8017;50.812;4.934;2023-03-05T10:26:49;10.07;;;9.07;;
15833;SDS011;8017;50.812;4.934;2023-03-05T10:30:01;10.93;;;9.70;;
15833;SDS011;8017;50.812;4.934;2023-03-05T10:33:16;10.63;;;9.57;;
15833;SDS011;8017;50.812;4.934;2023-03-05T10:36:28;10.10;;;9.03;;
15833;SDS011;8017;50.812;4.934;2023-03-05T10:39:52;9.93;;;8.90;;
15833;SDS011;8017;50.812;4.934;2023-03-05T10:43:04;10.00;;;8.13;;
15833;SDS011;8017;50.812;4.934;2023-03-05T10:46:14;8.07;;;7.27;;
15833;SDS011;8017;50.812;4.934;2023-03-05T10:49:20;8.47;;;7.60;;
15833;SDS011;8017;50.812;4.934;2023-03-05T10:52:28;8.13;;;7.40;;
15833;SDS011;8017;50.812;4.934;2023-03-05T10:55:33;8.00;;;7.17;;
15833;SDS011;8017;50.812;4.934;2023-03-05T10:58:35;8.40;;;7.40;;
15833;SDS011;8017;50.812;4.934;2023-03-05T11:01:37;9.40;;;7.83;;
15833;SDS011;8017;50.812;4.934;2023-03-05T11:04:40;7.97;;;7.23;;
15833;SDS011;8017;50.812;4.934;2023-03-05T11:07:42;7.27;;;6.57;;
15833;SDS011;8017;50.812;4.934;2023-03-05T11:10:44;7.13;;;6.50;;
15833;SDS011;8017;50.812;4.934;2023-03-05T11:13:50;7.73;;;6.70;;
15833;SDS011;8017;50.812;4.934;2023-03-05T11:16:54;7.10;;;6.50;;
15833;SDS011;8017;50.812;4.934;2023-03-05T11:20:19;8.40;;;7.60;;
15833;SDS011;8017;50.812;4.934;2023-03-05T11:23:31;8.27;;;7.30;;
15833;SDS011;8017;50.812;4.934;2023-03-05T11:26:33;7.10;;;6.50;;
15833;SDS011;8017;50.812;4.934;2023-03-05T11:29:35;4.17;;;3.80;;
15833;SDS011;8017;50.812;4.934;2023-03-05T11:32:48;3.80;;;3.50;;
15833;SDS011;8017;50.812;4.934;2023-03-05T11:35:52;5.17;;;3.60;;
15833;SDS011;8017;50.812;4.934;2023-03-05T11:39:13;3.03;;;2.60;;
15833;SDS011;8017;50.812;4.934;2023-03-05T11:42:17;3.07;;;2.77;;
15833;SDS011;8017;50.812;4.934;2023-03-05T11:45:24;3.33;;;2.50;;
15833;SDS011;8017;50.812;4.934;2023-03-05T11:48:29;5.03;;;2.90;;
15833;SDS011;8017;50.812;4.934;2023-03-05T11:51:39;3.00;;;2.50;;
15833;SDS011;8017;50.812;4.934;2023-03-05T11:54:46;2.70;;;2.30;;
15833;SDS011;8017;50.812;4.934;2023-03-05T11:57:58;3.53;;;2.40;;
15833;SDS011;8017;50.812;4.934;2023-03-05T12:01:12;1.87;;;1.77;;
15833;SDS011;8017;50.812;4.934;2023-03-05T12:04:16;2.47;;;2.13;;
15833;SDS011;8017;50.812;4.934;2023-03-05T12:07:22;2.80;;;2.13;;
15833;SDS011;8017;50.812;4.934;2023-03-05T12:10:31;2.27;;;1.90;;
15833;SDS011;8017;50.812;4.934;2023-03-05T12:13:34;2.63;;;2.20;;
15833;SDS011;8017;50.812;4.934;2023-03-05T12:16:38;2.90;;;2.10;;
15833;SDS011;8017;50.812;4.934;2023-03-05T12:19:45;2.20;;;1.90;;
15833;SDS011;8017;50.812;4.934;2023-03-05T12:22:52;2.17;;;1.70;;
15833;SDS011;8017;50.812;4.934;2023-03-05T12:25:56;3.40;;;1.93;;
15833;SDS011;8017;50.812;4.934;2023-03-05T12:29:00;2.10;;;1.90;;
15833;SDS011;8017;50.812;4.934;2023-03-05T12:32:02;3.30;;;2.10;;
15833;SDS011;8017;50.812;4.934;2023-03-05T12:35:16;1.40;;;1.30;;
15833;SDS011;8017;50.812;4.934;2023-03-05T12:38:31;3.70;;;1.40;;
15833;SDS011;8017;50.812;4.934;2023-03-05T12:41:33;2.83;;;1.73;;
15833;SDS011;8017;50.812;4.934;2023-03-05T12:44:36;3.67;;;1.90;;
15833;SDS011;8017;50.812;4.934;2023-03-05T12:47:38;7.80;;;2.20;;
15833;SDS011;8017;50.812;4.934;2023-03-05T12:50:48;3.30;;;1.87;;
15833;SDS011;8017;50.812;4.934;2023-03-05T12:53:53;5.40;;;2.23;;
15833;SDS011;8017;50.812;4.934;2023-03-05T12:56:55;7.03;;;2.80;;
15833;SDS011;8017;50.812;4.934;2023-03-05T12:59:58;6.03;;;2.13;;
15833;SDS011;8017;50.812;4.934;2023-03-05T13:03:07;2.37;;;2.10;;
15833;SDS011;8017;50.812;4.934;2023-03-05T13:06:22;6.00;;;2.67;;
15833;SDS011;8017;50.812;4.934;2023-03-05T13:09:29;6.73;;;2.70;;
15833;SDS011;8017;50.812;4.934;2023-03-05T13:12:32;3.50;;;2.03;;
15833;SDS011;8017;50.812;4.934;2023-03-05T13:15:37;3.63;;;2.73;;
15833;SDS011;8017;50.812;4.934;2023-03-05T13:18:40;11.73;;;3.00;;
15833;SDS011;8017;50.812;4.934;2023-03-05T13:21:54;4.77;;;2.80;;
15833;SDS011;8017;50.812;4.934;2023-03-05T13:25:10;6.47;;;2.70;;
15833;SDS011;8017;50.812;4.934;2023-03-05T13:28:15;3.33;;;2.67;;
15833;SDS011;8017;50.812;4.934;2023-03-05T13:31:18;6.07;;;3.77;;
15833;SDS011;8017;50.812;4.934;2023-03-05T13:34:22;4.57;;;2.57;;
15833;SDS011;8017;50.812;4.934;2023-03-05T13:37:26;6.40;;;2.53;;
15833;SDS011;8017;50.812;4.934;2023-03-05T13:40:32;4.00;;;2.40;;
15833;SDS011;8017;50.812;4.934;2023-03-05T13:43:41;6.03;;;2.00;;
15833;SDS011;8017;50.812;4.934;2023-03-05T13:46:43;6.03;;;2.23;;
15833;SDS011;8017;50.812;4.934;2023-03-05T13:49:53;6.17;;;3.33;;
15833;SDS011;8017;50.812;4.934;2023-03-05T13:53:08;4.47;;;3.70;;
15833;SDS011;8017;50.812;4.934;2023-03-05T13:56:17;6.50;;;3.93;;
15833;SDS011;8017;50.812;4.934;2023-03-05T13:59:20;5.37;;;3.90;;
15833;SDS011;8017;50.812;4.934;2023-03-05T14:02:25;5.87;;;3.77;;
15833;SDS011;8017;50.812;4.934;2023-03-05T14:05:29;6.83;;;4.73;;
15833;SDS011;8017;50.812;4.934;2023-03-05T14:08:31;6.93;;;4.33;;
15833;SDS011;8017;50.812;4.934;2023-03-05T14:11:35;8.33;;;4.40;;
15833;SDS011;8017;50.812;4.934;2023-03-05T14:14:37;6.27;;;4.20;;
15833;SDS011;8017;50.812;4.934;2023-03-05T14:17:40;6.67;;;4.73;;
15833;SDS011;8017;50.812;4.934;2023-03-05T14:20:56;6.87;;;4.30;;
15833;SDS011;8017;50.812;4.934;2023-03-05T14:24:09;13.60;;;4.40;;
15833;SDS011;8017;50.812;4.934;2023-03-05T14:27:15;6.30;;;4.30;;
15833;SDS011;8017;50.812;4.934;2023-03-05T14:30:21;5.63;;;3.83;;
15833;SDS011;8017;50.812;4.934;2023-03-05T14:33:25;6.90;;;2.47;;
15833;SDS011;8017;50.812;4.934;2023-03-05T14:36:29;4.70;;;3.37;;
15833;SDS011;8017;50.812;4.934;2023-03-05T14:39:37;5.07;;;3.37;;
15833;SDS011;8017;50.812;4.934;2023-03-05T14:42:50;5.23;;;3.80;;
15833;SDS011;8017;50.812;4.934;2023-03-05T14:45:53;8.40;;;4.23;;
15833;SDS011;8017;50.812;4.934;2023-03-05T14:48:55;4.70;;;3.97;;
15833;SDS011;8017;50.812;4.934;2023-03-05T14:51:57;8.03;;;5.03;;
15833;SDS011;8017;50.812;4.934;2023-03-05T14:54:59;6.10;;;4.40;;
15833;SDS011;8017;50.812;4.934;2023-03-05T14:58:03;6.40;;;5.50;;
15833;SDS011;8017;50.812;4.934;2023-03-05T15:01:11;5.23;;;4.70;;
15833;SDS011;8017;50.812;4.934;2023-03-05T15:04:13;8.30;;;5.50;;
15833;SDS011;8017;50.812;4.934;2023-03-05T15:07:18;6.27;;;5.17;;
15833;SDS011;8017;50.812;4.934;2023-03-05T15:10:24;6.63;;;4.77;;
15833;SDS011;8017;50.812;4.934;2023-03-05T15:13:27;6.87;;;5.17;;
15833;SDS011;8017;50.812;4.934;2023-03-05T15:16:29;7.30;;;4.70;;
15833;SDS011;8017;50.812;4.934;2023-03-05T15:19:31;7.17;;;4.60;;
15833;SDS011;8017;50.812;4.934;2023-03-05T15:22:33;7.03;;;4.43;;
15833;SDS011;8017;50.812;4.934;2023-03-05T15:25:35;5.20;;;4.70;;
15833;SDS011;8017;50.812;4.934;2023-03-05T15:28:39;7.73;;;5.10;;
15833;SDS011;8017;50.812;4.934;2023-03-05T15:31:41;7.43;;;5.17;;
15833;SDS011;8017;50.812;4.934;2023-03-05T15:34:43;8.47;;;5.40;;
15833;SDS011;8017;50.812;4.934;2023-03-05T15:37:45;9.47;;;6.17;;
15833;SDS011;8017;50.812;4.934;2023-03-05T15:40:47;9.23;;;5.70;;
15833;SDS011;8017;50.812;4.934;2023-03-05T15:43:51;7.30;;;5.63;;
15833;SDS011;8017;50.812;4.934;2023-03-05T15:46:52;7.27;;;6.13;;
15833;SDS011;8017;50.812;4.934;2023-03-05T15:49:55;12.57;;;6.47;;
15833;SDS011;8017;50.812;4.934;2023-03-05T15:52:57;11.83;;;6.43;;
15833;SDS011;8017;50.812;4.934;2023-03-05T15:55:59;8.00;;;6.60;;
15833;SDS011;8017;50.812;4.934;2023-03-05T15:59:02;9.50;;;6.50;;
15833;SDS011;8017;50.812;4.934;2023-03-05T16:02:07;7.63;;;6.80;;
15833;SDS011;8017;50.812;4.934;2023-03-05T16:05:13;8.10;;;5.57;;
15833;SDS011;8017;50.812;4.934;2023-03-05T16:08:15;6.23;;;5.13;;
15833;SDS011;8017;50.812;4.934;2023-03-05T16:11:17;8.33;;;5.30;;
15833;SDS011;8017;50.812;4.934;2023-03-05T16:14:23;7.17;;;5.67;;
15833;SDS011;8017;50.812;4.934;2023-03-05T16:17:26;7.07;;;4.83;;
15833;SDS011;8017;50.812;4.934;2023-03-05T16:20:28;7.90;;;5.53;;
15833;SDS011;8017;50.812;4.934;2023-03-05T16:23:30;8.23;;;6.43;;
15833;SDS011;8017;50.812;4.934;2023-03-05T16:26:33;8.37;;;5.60;;
15833;SDS011;8017;50.812;4.934;2023-03-05T16:29:36;7.83;;;5.23;;
15833;SDS011;8017;50.812;4.934;2023-03-05T16:32:38;6.80;;;4.57;;
15833;SDS011;8017;50.812;4.934;2023-03-05T16:35:41;7.40;;;5.17;;
15833;SDS011;8017;50.812;4.934;2023-03-05T16:38:42;5.70;;;4.57;;
15833;SDS011;8017;50.812;4.934;2023-03-05T16:41:44;5.03;;;4.00;;
15833;SDS011;8017;50.812;4.934;2023-03-05T16:44:48;5.17;;;4.20;;
15833;SDS011;8017;50.812;4.934;2023-03-05T16:47:50;4.40;;;3.63;;
15833;SDS011;8017;50.812;4.934;2023-03-05T16:50:52;3.90;;;3.50;;
15833;SDS011;8017;50.812;4.934;2023-03-05T16:53:56;5.30;;;4.27;;
15833;SDS011;8017;50.812;4.934;2023-03-05T16:56:58;6.47;;;3.93;;
15833;SDS011;8017;50.812;4.934;2023-03-05T17:00:03;6.00;;;3.83;;
15833;SDS011;8017;50.812;4.934;2023-03-05T17:03:05;6.70;;;4.53;;
15833;SDS011;8017;50.812;4.934;2023-03-05T17:06:08;8.10;;;5.23;;
15833;SDS011;8017;50.812;4.934;2023-03-05T17:09:12;7.90;;;4.57;;
15833;SDS011;8017;50.812;4.934;2023-03-05T17:12:14;6.37;;;4.77;;
15833;SDS011;8017;50.812;4.934;2023-03-05T17:15:17;7.93;;;4.93;;
15833;SDS011;8017;50.812;4.934;2023-03-05T17:18:19;9.50;;;5.37;;
15833;SDS011;8017;50.812;4.934;2023-03-05T17:21:21;6.17;;;5.13;;
15833;SDS011;8017;50.812;4.934;2023-03-05T17:24:23;7.07;;;4.77;;
15833;SDS011;8017;50.812;4.934;2023-03-05T17:27:25;8.23;;;5.27;;
15833;SDS011;8017;50.812;4.934;2023-03-05T17:30:29;7.43;;;5.20;;
15833;SDS011;8017;50.812;4.934;2023-03-05T17:33:32;7.33;;;5.50;;
15833;SDS011;8017;50.812;4.934;2023-03-05T17:36:35;4.13;;;3.60;;
15833;SDS011;8017;50.812;4.934;2023-03-05T17:39:38;7.00;;;3.93;;
15833;SDS011;8017;50.812;4.934;2023-03-05T17:42:40;4.63;;;3.10;;
15833;SDS011;8017;50.812;4.934;2023-03-05T17:45:43;4.03;;;2.80;;
15833;SDS011;8017;50.812;4.934;2023-03-05T17:48:46;3.77;;;2.80;;
15833;SDS011;8017;50.812;4.934;2023-03-05T17:51:48;3.00;;;2.40;;
15833;SDS011;8017;50.812;4.934;2023-03-05T17:54:49;9.50;;;3.17;;
15833;SDS011;8017;50.812;4.934;2023-03-05T17:57:52;3.97;;;2.90;;
15833;SDS011;8017;50.812;4.934;2023-03-05T18:00:56;4.77;;;3.27;;
15833;SDS011;8017;50.812;4.934;2023-03-05T18:03:59;5.70;;;3.50;;
15833;SDS011;8017;50.812;4.934;2023-03-05T18:07:01;4.07;;;3.00;;
15833;SDS011;8017;50.812;4.934;2023-03-05T18:10:03;8.37;;;3.80;;
15833;SDS011;8017;50.812;4.934;2023-03-05T18:13:07;6.93;;;5.17;;
15833;SDS011;8017;50.812;4.934;2023-03-05T18:16:10;9.77;;;7.00;;
15833;SDS011;8017;50.812;4.934;2023-03-05T18:19:13;6.90;;;5.30;;
15833;SDS011;8017;50.812;4.934;2023-03-05T18:22:15;8.10;;;5.57;;
15833;SDS011;8017;50.812;4.934;2023-03-05T18:25:17;6.60;;;5.83;;
15833;SDS011;8017;50.812;4.934;2023-03-05T18:28:19;6.67;;;5.60;;
15833;SDS011;8017;50.812;4.934;2023-03-05T18:31:22;11.77;;;6.07;;
15833;SDS011;8017;50.812;4.934;2023-03-05T18:34:25;9.10;;;6.20;;
15833;SDS011;8017;50.812;4.934;2023-03-05T18:37:27;8.10;;;5.93;;
15833;SDS011;8017;50.812;4.934;2023-03-05T18:40:30;9.00;;;6.90;;
15833;SDS011;8017;50.812;4.934;2023-03-05T18:43:34;9.20;;;6.20;;